sensor_id;sensor_type;location;lat;lon;timestamp;P1;durP1;ratioP1;P2;durP2;ratioP2
22778;SDS011;11556;51.194;3.800;2023-07-20T00:01:52;12.43;;;5.53;;
22778;SDS011;11556;51.194;3.800;2023-07-20T00:04:17;12.70;;;5.35;;
22778;SDS011;11556;51.194;3.800;2023-07-20T00:06:43;11.93;;;5.53;;
22778;SDS011;11556;51.194;3.800;2023-07-20T00:09:09;9.50;;;5.07;;
22778;SDS011;11556;51.194;3.800;2023-07-20T00:11:37;18.75;;;5.45;;
22778;SDS011;11556;51.194;3.800;2023-07-20T00:14:04;19.42;;;6.13;;
22778;SDS011;11556;51.194;3.800;2023-07-20T00:16:30;15.50;;;5.78;;
22778;SDS011;11556;51.194;3.800;2023-07-20T00:18:56;16.20;;;6.18;;
22778;SDS011;11556;51.194;3.800;2023-07-20T00:21:21;11.05;;;6.40;;
22778;SDS011;11556;51.194;3.800;2023-07-20T00:23:47;13.05;;;5.80;;
22778;SDS011;11556;51.194;3.800;2023-07-20T00:26:12;16.48;;;6.53;;
22778;SDS011;11556;51.194;3.800;2023-07-20T00:28:38;13.43;;;6.03;;
22778;SDS011;11556;51.194;3.800;2023-07-20T00:31:04;12.07;;;5.65;;
22778;SDS011;11556;51.194;3.800;2023-07-20T00:33:30;13.13;;;5.72;;
22778;SDS011;11556;51.194;3.800;2023-07-20T00:35:55;15.38;;;5.78;;
22778;SDS011;11556;51.194;3.800;2023-07-20T00:38:21;14.48;;;5.88;;
22778;SDS011;11556;51.194;3.800;2023-07-20T00:40:47;16.77;;;5.57;;
22778;SDS011;11556;51.194;3.800;2023-07-20T00:43:14;20.45;;;6.55;;
22778;SDS011;11556;51.194;3.800;2023-07-20T00:45:40;13.05;;;5.82;;
22778;SDS011;11556;51.194;3.800;2023-07-20T00:48:06;12.07;;;6.43;;
22778;SDS011;11556;51.194;3.800;2023-07-20T00:50:32;12.40;;;6.20;;
22778;SDS011;11556;51.194;3.800;2023-07-20T00:52:59;13.95;;;7.35;;
22778;SDS011;11556;51.194;3.800;2023-07-20T00:55:25;17.85;;;7.43;;
22778;SDS011;11556;51.194;3.800;2023-07-20T00:57:52;12.73;;;6.35;;
22778;SDS011;11556;51.194;3.800;2023-07-20T01:00:17;13.57;;;6.85;;
22778;SDS011;11556;51.194;3.800;2023-07-20T01:02:43;14.88;;;7.38;;
22778;SDS011;11556;51.194;3.800;2023-07-20T01:05:09;11.38;;;6.82;;
22778;SDS011;11556;51.194;3.800;2023-07-20T01:07:46;13.50;;;7.10;;
22778;SDS011;11556;51.194;3.800;2023-07-20T01:10:31;10.30;;;7.00;;
22778;SDS011;11556;51.194;3.800;2023-07-20T01:13:04;15.63;;;7.15;;
22778;SDS011;11556;51.194;3.800;2023-07-20T01:15:34;15.57;;;6.55;;
22778;SDS011;11556;51.194;3.800;2023-07-20T01:17:59;22.88;;;7.72;;
22778;SDS011;11556;51.194;3.800;2023-07-20T01:20:29;14.48;;;7.65;;
22778;SDS011;11556;51.194;3.800;2023-07-20T01:33:50;14.38;;;7.45;;
22778;SDS011;11556;51.194;3.800;2023-07-20T01:36:18;13.52;;;7.70;;
22778;SDS011;11556;51.194;3.800;2023-07-20T01:38:46;12.82;;;7.72;;
22778;SDS011;11556;51.194;3.800;2023-07-20T01:41:12;12.43;;;7.07;;
22778;SDS011;11556;51.194;3.800;2023-07-20T01:43:39;17.63;;;8.15;;
22778;SDS011;11556;51.194;3.800;2023-07-20T01:46:04;16.55;;;7.68;;
22778;SDS011;11556;51.194;3.800;2023-07-20T01:48:30;15.35;;;8.05;;
22778;SDS011;11556;51.194;3.800;2023-07-20T01:50:56;15.48;;;8.10;;
22778;SDS011;11556;51.194;3.800;2023-07-20T01:53:22;13.18;;;8.27;;
22778;SDS011;11556;51.194;3.800;2023-07-20T01:55:47;13.80;;;8.35;;
22778;SDS011;11556;51.194;3.800;2023-07-20T01:58:13;11.77;;;7.82;;
22778;SDS011;11556;51.194;3.800;2023-07-20T02:00:40;15.68;;;8.18;;
22778;SDS011;11556;51.194;3.800;2023-07-20T02:03:05;12.20;;;8.02;;
22778;SDS011;11556;51.194;3.800;2023-07-20T02:05:31;10.07;;;6.93;;
22778;SDS011;11556;51.194;3.800;2023-07-20T02:07:57;14.82;;;7.90;;
22778;SDS011;11556;51.194;3.800;2023-07-20T02:10:22;20.35;;;8.80;;
22778;SDS011;11556;51.194;3.800;2023-07-20T02:12:48;16.40;;;9.27;;
22778;SDS011;11556;51.194;3.800;2023-07-20T02:15:14;17.15;;;9.25;;
22778;SDS011;11556;51.194;3.800;2023-07-20T02:17:41;14.68;;;8.98;;
22778;SDS011;11556;51.194;3.800;2023-07-20T02:20:07;17.38;;;8.98;;
22778;SDS011;11556;51.194;3.800;2023-07-20T02:22:35;14.75;;;8.43;;
22778;SDS011;11556;51.194;3.800;2023-07-20T02:25:01;17.15;;;9.07;;
22778;SDS011;11556;51.194;3.800;2023-07-20T02:27:27;16.23;;;10.90;;
22778;SDS011;11556;51.194;3.800;2023-07-20T02:29:53;15.18;;;9.80;;
22778;SDS011;11556;51.194;3.800;2023-07-20T02:32:18;19.23;;;9.32;;
22778;SDS011;11556;51.194;3.800;2023-07-20T02:34:44;21.00;;;10.32;;
22778;SDS011;11556;51.194;3.800;2023-07-20T02:37:10;20.48;;;10.40;;
22778;SDS011;11556;51.194;3.800;2023-07-20T02:39:38;15.98;;;9.52;;
22778;SDS011;11556;51.194;3.800;2023-07-20T02:42:04;19.77;;;10.40;;
22778;SDS011;11556;51.194;3.800;2023-07-20T02:44:30;17.40;;;10.23;;
22778;SDS011;11556;51.194;3.800;2023-07-20T02:46:55;13.73;;;10.10;;
22778;SDS011;11556;51.194;3.800;2023-07-20T02:49:21;16.90;;;10.77;;
22778;SDS011;11556;51.194;3.800;2023-07-20T02:51:47;17.63;;;10.30;;
22778;SDS011;11556;51.194;3.800;2023-07-20T02:54:12;18.40;;;9.88;;
22778;SDS011;11556;51.194;3.800;2023-07-20T02:56:38;16.30;;;10.07;;
22778;SDS011;11556;51.194;3.800;2023-07-20T02:59:03;14.80;;;10.02;;
22778;SDS011;11556;51.194;3.800;2023-07-20T03:01:29;19.08;;;11.07;;
22778;SDS011;11556;51.194;3.800;2023-07-20T03:03:55;17.58;;;11.60;;
22778;SDS011;11556;51.194;3.800;2023-07-20T03:06:21;19.15;;;11.25;;
22778;SDS011;11556;51.194;3.800;2023-07-20T03:08:47;14.88;;;10.23;;
22778;SDS011;11556;51.194;3.800;2023-07-20T03:11:13;19.38;;;12.52;;
22778;SDS011;11556;51.194;3.800;2023-07-20T03:13:40;22.30;;;11.77;;
22778;SDS011;11556;51.194;3.800;2023-07-20T03:16:07;20.55;;;11.55;;
22778;SDS011;11556;51.194;3.800;2023-07-20T03:18:36;21.00;;;11.98;;
22778;SDS011;11556;51.194;3.800;2023-07-20T03:21:03;20.77;;;12.27;;
22778;SDS011;11556;51.194;3.800;2023-07-20T03:23:28;18.65;;;11.40;;
22778;SDS011;11556;51.194;3.800;2023-07-20T03:25:54;17.35;;;11.05;;
22778;SDS011;11556;51.194;3.800;2023-07-20T03:28:20;15.52;;;10.82;;
22778;SDS011;11556;51.194;3.800;2023-07-20T03:30:45;17.10;;;10.90;;
22778;SDS011;11556;51.194;3.800;2023-07-20T03:33:11;14.55;;;10.55;;
22778;SDS011;11556;51.194;3.800;2023-07-20T03:35:37;19.42;;;11.75;;
22778;SDS011;11556;51.194;3.800;2023-07-20T03:38:03;14.30;;;10.00;;
22778;SDS011;11556;51.194;3.800;2023-07-20T03:40:29;14.50;;;10.57;;
22778;SDS011;11556;51.194;3.800;2023-07-20T03:42:55;18.25;;;11.38;;
22778;SDS011;11556;51.194;3.800;2023-07-20T03:45:20;15.70;;;11.05;;
22778;SDS011;11556;51.194;3.800;2023-07-20T03:47:49;17.38;;;10.65;;
22778;SDS011;11556;51.194;3.800;2023-07-20T03:50:14;14.75;;;10.52;;
22778;SDS011;11556;51.194;3.800;2023-07-20T03:52:40;16.88;;;10.93;;
22778;SDS011;11556;51.194;3.800;2023-07-20T03:55:05;12.93;;;10.20;;
22778;SDS011;11556;51.194;3.800;2023-07-20T03:57:31;17.02;;;10.63;;
22778;SDS011;11556;51.194;3.800;2023-07-20T03:59:58;16.65;;;11.32;;
22778;SDS011;11556;51.194;3.800;2023-07-20T04:02:24;13.85;;;10.60;;
22778;SDS011;11556;51.194;3.800;2023-07-20T04:04:50;16.48;;;11.60;;
22778;SDS011;11556;51.194;3.800;2023-07-20T04:07:15;17.80;;;10.68;;
22778;SDS011;11556;51.194;3.800;2023-07-20T04:09:41;16.00;;;10.93;;
22778;SDS011;11556;51.194;3.800;2023-07-20T04:12:07;15.68;;;10.93;;
22778;SDS011;11556;51.194;3.800;2023-07-20T04:14:32;15.00;;;10.82;;
22778;SDS011;11556;51.194;3.800;2023-07-20T04:16:58;12.45;;;9.90;;
22778;SDS011;11556;51.194;3.800;2023-07-20T04:19:25;16.13;;;10.82;;
22778;SDS011;11556;51.194;3.800;2023-07-20T04:21:51;14.30;;;9.98;;
22778;SDS011;11556;51.194;3.800;2023-07-20T04:24:16;13.75;;;9.25;;
22778;SDS011;11556;51.194;3.800;2023-07-20T04:26:42;14.60;;;9.40;;
22778;SDS011;11556;51.194;3.800;2023-07-20T04:29:08;14.88;;;10.30;;
22778;SDS011;11556;51.194;3.800;2023-07-20T04:31:34;15.00;;;9.43;;
22778;SDS011;11556;51.194;3.800;2023-07-20T04:34:00;12.38;;;9.05;;
22778;SDS011;11556;51.194;3.800;2023-07-20T04:36:26;14.20;;;9.27;;
22778;SDS011;11556;51.194;3.800;2023-07-20T04:38:51;10.55;;;8.07;;
22778;SDS011;11556;51.194;3.800;2023-07-20T04:41:17;13.77;;;8.50;;
22778;SDS011;11556;51.194;3.800;2023-07-20T04:43:44;8.90;;;7.38;;
22778;SDS011;11556;51.194;3.800;2023-07-20T04:46:10;11.85;;;8.30;;
22778;SDS011;11556;51.194;3.800;2023-07-20T04:48:36;10.95;;;8.30;;
22778;SDS011;11556;51.194;3.800;2023-07-20T04:51:02;11.85;;;8.10;;
22778;SDS011;11556;51.194;3.800;2023-07-20T04:53:28;10.23;;;7.60;;
22778;SDS011;11556;51.194;3.800;2023-07-20T04:55:53;11.27;;;7.55;;
22778;SDS011;11556;51.194;3.800;2023-07-20T04:58:20;10.48;;;7.63;;
22778;SDS011;11556;51.194;3.800;2023-07-20T05:00:46;8.77;;;6.88;;
22778;SDS011;11556;51.194;3.800;2023-07-20T05:03:13;8.30;;;6.38;;
22778;SDS011;11556;51.194;3.800;2023-07-20T05:05:38;6.25;;;5.65;;
22778;SDS011;11556;51.194;3.800;2023-07-20T05:08:04;9.10;;;6.47;;
22778;SDS011;11556;51.194;3.800;2023-07-20T05:10:30;6.90;;;5.38;;
22778;SDS011;11556;51.194;3.800;2023-07-20T05:12:56;7.60;;;5.75;;
22778;SDS011;11556;51.194;3.800;2023-07-20T05:15:22;7.13;;;5.70;;
22778;SDS011;11556;51.194;3.800;2023-07-20T05:17:47;5.47;;;4.95;;
22778;SDS011;11556;51.194;3.800;2023-07-20T05:20:13;5.93;;;5.32;;
22778;SDS011;11556;51.194;3.800;2023-07-20T05:22:39;6.05;;;4.90;;
22778;SDS011;11556;51.194;3.800;2023-07-20T05:25:08;7.25;;;4.97;;
22778;SDS011;11556;51.194;3.800;2023-07-20T05:27:36;6.32;;;4.60;;
22778;SDS011;11556;51.194;3.800;2023-07-20T05:30:02;5.47;;;4.53;;
22778;SDS011;11556;51.194;3.800;2023-07-20T05:32:29;6.07;;;4.35;;
22778;SDS011;11556;51.194;3.800;2023-07-20T05:34:54;8.27;;;4.38;;
22778;SDS011;11556;51.194;3.800;2023-07-20T05:37:20;4.47;;;4.07;;
22778;SDS011;11556;51.194;3.800;2023-07-20T05:39:46;4.25;;;3.85;;
22778;SDS011;11556;51.194;3.800;2023-07-20T05:42:12;4.32;;;3.78;;
22778;SDS011;11556;51.194;3.800;2023-07-20T05:44:37;4.82;;;3.63;;
22778;SDS011;11556;51.194;3.800;2023-07-20T05:47:04;3.88;;;3.55;;
22778;SDS011;11556;51.194;3.800;2023-07-20T05:49:30;5.82;;;3.33;;
22778;SDS011;11556;51.194;3.800;2023-07-20T05:51:56;3.00;;;2.80;;
22778;SDS011;11556;51.194;3.800;2023-07-20T05:54:22;5.68;;;3.15;;
22778;SDS011;11556;51.194;3.800;2023-07-20T05:56:49;3.55;;;2.67;;
22778;SDS011;11556;51.194;3.800;2023-07-20T05:59:15;5.72;;;2.63;;
22778;SDS011;11556;51.194;3.800;2023-07-20T06:01:41;3.28;;;2.60;;
22778;SDS011;11556;51.194;3.800;2023-07-20T06:04:07;3.78;;;2.42;;
22778;SDS011;11556;51.194;3.800;2023-07-20T06:06:32;2.70;;;2.50;;
22778;SDS011;11556;51.194;3.800;2023-07-20T06:08:58;2.42;;;2.22;;
22778;SDS011;11556;51.194;3.800;2023-07-20T06:11:28;2.85;;;2.40;;
22778;SDS011;11556;51.194;3.800;2023-07-20T06:13:53;4.60;;;2.38;;
22778;SDS011;11556;51.194;3.800;2023-07-20T06:16:19;3.40;;;2.22;;
22778;SDS011;11556;51.194;3.800;2023-07-20T06:18:44;3.67;;;2.28;;
22778;SDS011;11556;51.194;3.800;2023-07-20T06:21:10;2.42;;;2.13;;
22778;SDS011;11556;51.194;3.800;2023-07-20T06:23:36;4.53;;;1.90;;
22778;SDS011;11556;51.194;3.800;2023-07-20T06:26:01;1.70;;;1.60;;
22778;SDS011;11556;51.194;3.800;2023-07-20T06:28:27;2.50;;;1.55;;
22778;SDS011;11556;51.194;3.800;2023-07-20T06:30:58;1.75;;;1.30;;
22778;SDS011;11556;51.194;3.800;2023-07-20T06:33:27;1.77;;;1.20;;
22778;SDS011;11556;51.194;3.800;2023-07-20T06:35:53;0.80;;;0.80;;
22778;SDS011;11556;51.194;3.800;2023-07-20T06:38:19;1.98;;;1.00;;
22778;SDS011;11556;51.194;3.800;2023-07-20T06:40:46;0.80;;;0.75;;
22778;SDS011;11556;51.194;3.800;2023-07-20T06:43:12;2.47;;;0.60;;
22778;SDS011;11556;51.194;3.800;2023-07-20T06:45:38;0.50;;;0.50;;
22778;SDS011;11556;51.194;3.800;2023-07-20T06:48:03;0.98;;;0.55;;
22778;SDS011;11556;51.194;3.800;2023-07-20T06:50:29;0.40;;;0.40;;
22778;SDS011;11556;51.194;3.800;2023-07-20T06:52:55;0.95;;;0.43;;
22778;SDS011;11556;51.194;3.800;2023-07-20T06:55:21;0.93;;;0.60;;
22778;SDS011;11556;51.194;3.800;2023-07-20T06:57:46;0.40;;;0.40;;
22778;SDS011;11556;51.194;3.800;2023-07-20T07:00:12;1.30;;;0.65;;
22778;SDS011;11556;51.194;3.800;2023-07-20T07:02:38;1.52;;;0.60;;
22778;SDS011;11556;51.194;3.800;2023-07-20T07:05:04;0.73;;;0.70;;
22778;SDS011;11556;51.194;3.800;2023-07-20T07:07:30;2.35;;;0.93;;
22778;SDS011;11556;51.194;3.800;2023-07-20T07:09:56;2.95;;;1.00;;
22778;SDS011;11556;51.194;3.800;2023-07-20T07:12:21;18.95;;;1.05;;
22778;SDS011;11556;51.194;3.800;2023-07-20T07:14:47;0.50;;;0.50;;
22778;SDS011;11556;51.194;3.800;2023-07-20T07:17:13;0.85;;;0.70;;
22778;SDS011;11556;51.194;3.800;2023-07-20T07:19:39;0.80;;;0.68;;
22778;SDS011;11556;51.194;3.800;2023-07-20T07:22:05;1.05;;;0.90;;
22778;SDS011;11556;51.194;3.800;2023-07-20T07:24:31;1.10;;;1.00;;
22778;SDS011;11556;51.194;3.800;2023-07-20T07:27:00;1.52;;;0.80;;
22778;SDS011;11556;51.194;3.800;2023-07-20T07:29:26;1.15;;;0.90;;
22778;SDS011;11556;51.194;3.800;2023-07-20T07:31:52;0.25;;;0.25;;
22778;SDS011;11556;51.194;3.800;2023-07-20T07:34:17;0.68;;;0.30;;
22778;SDS011;11556;51.194;3.800;2023-07-20T07:36:43;1.88;;;0.63;;
22778;SDS011;11556;51.194;3.800;2023-07-20T07:39:10;0.50;;;0.50;;
22778;SDS011;11556;51.194;3.800;2023-07-20T07:41:36;1.25;;;0.70;;
22778;SDS011;11556;51.194;3.800;2023-07-20T07:44:01;0.65;;;0.60;;
22778;SDS011;11556;51.194;3.800;2023-07-20T07:46:27;0.60;;;0.60;;
22778;SDS011;11556;51.194;3.800;2023-07-20T07:48:53;1.05;;;0.50;;
22778;SDS011;11556;51.194;3.800;2023-07-20T07:51:18;0.60;;;0.60;;
22778;SDS011;11556;51.194;3.800;2023-07-20T07:53:45;0.90;;;0.88;;
22778;SDS011;11556;51.194;3.800;2023-07-20T07:56:11;1.20;;;1.10;;
22778;SDS011;11556;51.194;3.800;2023-07-20T07:58:37;1.98;;;1.27;;
22778;SDS011;11556;51.194;3.800;2023-07-20T08:01:03;1.30;;;1.20;;
22778;SDS011;11556;51.194;3.800;2023-07-20T08:03:29;1.38;;;1.27;;
22778;SDS011;11556;51.194;3.800;2023-07-20T08:05:55;1.08;;;0.82;;
22778;SDS011;11556;51.194;3.800;2023-07-20T08:08:20;0.60;;;0.60;;
22778;SDS011;11556;51.194;3.800;2023-07-20T08:10:47;0.80;;;0.80;;
22778;SDS011;11556;51.194;3.800;2023-07-20T08:13:13;1.02;;;0.85;;
22778;SDS011;11556;51.194;3.800;2023-07-20T08:15:39;1.27;;;0.80;;
22778;SDS011;11556;51.194;3.800;2023-07-20T08:18:10;1.15;;;1.00;;
22778;SDS011;11556;51.194;3.800;2023-07-20T08:20:36;1.80;;;0.90;;
22778;SDS011;11556;51.194;3.800;2023-07-20T08:23:02;1.85;;;1.00;;
22778;SDS011;11556;51.194;3.800;2023-07-20T08:25:27;0.90;;;0.90;;
22778;SDS011;11556;51.194;3.800;2023-07-20T08:27:53;1.10;;;1.00;;
22778;SDS011;11556;51.194;3.800;2023-07-20T08:30:20;1.08;;;0.90;;
22778;SDS011;11556;51.194;3.800;2023-07-20T08:32:46;0.63;;;0.63;;
22778;SDS011;11556;51.194;3.800;2023-07-20T08:35:12;1.50;;;0.70;;
22778;SDS011;11556;51.194;3.800;2023-07-20T08:37:37;0.70;;;0.70;;
22778;SDS011;11556;51.194;3.800;2023-07-20T08:40:03;1.02;;;0.75;;
22778;SDS011;11556;51.194;3.800;2023-07-20T08:42:29;0.80;;;0.80;;
22778;SDS011;11556;51.194;3.800;2023-07-20T08:44:55;0.77;;;0.50;;
22778;SDS011;11556;51.194;3.800;2023-07-20T08:47:22;0.68;;;0.30;;
22778;SDS011;11556;51.194;3.800;2023-07-20T08:49:50;1.15;;;0.20;;
22778;SDS011;11556;51.194;3.800;2023-07-20T08:52:16;0.35;;;0.17;;
22778;SDS011;11556;51.194;3.800;2023-07-20T08:54:42;0.20;;;0.20;;
22778;SDS011;11556;51.194;3.800;2023-07-20T08:57:08;0.10;;;0.10;;
22778;SDS011;11556;51.194;3.800;2023-07-20T08:59:39;1.03;;;0.20;;
22778;SDS011;11556;51.194;3.800;2023-07-20T09:02:05;0.40;;;0.10;;
22778;SDS011;11556;51.194;3.800;2023-07-20T09:04:32;1.25;;;0.20;;
22778;SDS011;11556;51.194;3.800;2023-07-20T09:06:58;0.17;;;0.13;;
22778;SDS011;11556;51.194;3.800;2023-07-20T09:09:23;0.32;;;0.20;;
22778;SDS011;11556;51.194;3.800;2023-07-20T09:11:49;1.08;;;0.43;;
22778;SDS011;11556;51.194;3.800;2023-07-20T09:14:15;0.20;;;0.10;;
22778;SDS011;11556;51.194;3.800;2023-07-20T09:16:53;0.20;;;0.20;;
22778;SDS011;11556;51.194;3.800;2023-07-20T09:19:20;0.47;;;0.30;;
22778;SDS011;11556;51.194;3.800;2023-07-20T09:21:47;0.32;;;0.20;;
22778;SDS011;11556;51.194;3.800;2023-07-20T09:24:14;0.20;;;0.20;;
22778;SDS011;11556;51.194;3.800;2023-07-20T09:26:41;2.15;;;0.30;;
22778;SDS011;11556;51.194;3.800;2023-07-20T09:29:10;0.65;;;0.20;;
22778;SDS011;11556;51.194;3.800;2023-07-20T09:31:36;2.22;;;0.20;;
22778;SDS011;11556;51.194;3.800;2023-07-20T09:34:03;0.63;;;0.20;;
22778;SDS011;11556;51.194;3.800;2023-07-20T09:36:31;0.20;;;0.15;;
22778;SDS011;11556;51.194;3.800;2023-07-20T09:39:02;0.20;;;0.20;;
22778;SDS011;11556;51.194;3.800;2023-07-20T09:41:29;0.15;;;0.10;;
22778;SDS011;11556;51.194;3.800;2023-07-20T09:43:55;0.25;;;0.13;;
22778;SDS011;11556;51.194;3.800;2023-07-20T09:46:22;0.20;;;0.20;;
22778;SDS011;11556;51.194;3.800;2023-07-20T09:48:54;0.22;;;0.20;;
22778;SDS011;11556;51.194;3.800;2023-07-20T09:51:23;0.40;;;0.10;;
22778;SDS011;11556;51.194;3.800;2023-07-20T09:53:50;0.30;;;0.20;;
22778;SDS011;11556;51.194;3.800;2023-07-20T09:56:18;0.90;;;0.20;;
22778;SDS011;11556;51.194;3.800;2023-07-20T09:58:47;0.10;;;0.10;;
22778;SDS011;11556;51.194;3.800;2023-07-20T10:01:13;3.83;;;0.35;;
22778;SDS011;11556;51.194;3.800;2023-07-20T10:03:45;0.28;;;0.25;;
22778;SDS011;11556;51.194;3.800;2023-07-20T10:06:12;0.20;;;0.20;;
22778;SDS011;11556;51.194;3.800;2023-07-20T10:08:45;0.30;;;0.30;;
22778;SDS011;11556;51.194;3.800;2023-07-20T10:11:15;0.40;;;0.40;;
22778;SDS011;11556;51.194;3.800;2023-07-20T10:13:42;1.48;;;0.25;;
22778;SDS011;11556;51.194;3.800;2023-07-20T10:16:20;1.65;;;0.28;;
22778;SDS011;11556;51.194;3.800;2023-07-20T10:21:42;0.35;;;0.30;;
22778;SDS011;11556;51.194;3.800;2023-07-20T10:26:39;0.77;;;0.60;;
22778;SDS011;11556;51.194;3.800;2023-07-20T10:29:05;0.38;;;0.30;;
22778;SDS011;11556;51.194;3.800;2023-07-20T10:31:32;0.30;;;0.30;;
22778;SDS011;11556;51.194;3.800;2023-07-20T10:33:58;1.17;;;0.45;;
22778;SDS011;11556;51.194;3.800;2023-07-20T10:36:25;0.38;;;0.30;;
22778;SDS011;11556;51.194;3.800;2023-07-20T10:38:55;0.43;;;0.43;;
22778;SDS011;11556;51.194;3.800;2023-07-20T10:41:28;0.50;;;0.45;;
22778;SDS011;11556;51.194;3.800;2023-07-20T10:44:01;0.60;;;0.40;;
22778;SDS011;11556;51.194;3.800;2023-07-20T10:46:43;0.85;;;0.30;;
22778;SDS011;11556;51.194;3.800;2023-07-20T10:49:10;0.30;;;0.30;;
22778;SDS011;11556;51.194;3.800;2023-07-20T10:51:47;1.05;;;0.50;;
22778;SDS011;11556;51.194;3.800;2023-07-20T10:56:47;0.40;;;0.40;;
22778;SDS011;11556;51.194;3.800;2023-07-20T11:01:46;1.42;;;0.45;;
22778;SDS011;11556;51.194;3.800;2023-07-20T11:04:14;0.50;;;0.50;;
22778;SDS011;11556;51.194;3.800;2023-07-20T11:06:43;0.80;;;0.60;;
22778;SDS011;11556;51.194;3.800;2023-07-20T11:09:15;1.02;;;0.50;;
22778;SDS011;11556;51.194;3.800;2023-07-20T11:11:41;0.60;;;0.50;;
22778;SDS011;11556;51.194;3.800;2023-07-20T11:14:09;0.60;;;0.40;;
22778;SDS011;11556;51.194;3.800;2023-07-20T11:16:45;0.95;;;0.73;;
22778;SDS011;11556;51.194;3.800;2023-07-20T11:24:10;0.77;;;0.63;;
22778;SDS011;11556;51.194;3.800;2023-07-20T11:26:41;0.68;;;0.68;;
22778;SDS011;11556;51.194;3.800;2023-07-20T11:29:07;1.13;;;0.80;;
22778;SDS011;11556;51.194;3.800;2023-07-20T11:31:40;1.95;;;0.90;;
22778;SDS011;11556;51.194;3.800;2023-07-20T11:34:09;0.85;;;0.85;;
22778;SDS011;11556;51.194;3.800;2023-07-20T11:36:42;1.77;;;0.60;;
22778;SDS011;11556;51.194;3.800;2023-07-20T11:39:13;0.70;;;0.50;;
22778;SDS011;11556;51.194;3.800;2023-07-20T11:41:50;1.80;;;0.52;;
22778;SDS011;11556;51.194;3.800;2023-07-20T11:44:17;2.05;;;0.70;;
22778;SDS011;11556;51.194;3.800;2023-07-20T11:46:44;1.08;;;0.85;;
22778;SDS011;11556;51.194;3.800;2023-07-20T11:49:10;0.80;;;0.80;;
22778;SDS011;11556;51.194;3.800;2023-07-20T11:51:36;5.00;;;1.10;;
22778;SDS011;11556;51.194;3.800;2023-07-20T11:54:05;1.15;;;0.70;;
22778;SDS011;11556;51.194;3.800;2023-07-20T11:56:32;0.98;;;0.75;;
22778;SDS011;11556;51.194;3.800;2023-07-20T11:58:58;1.02;;;0.80;;
22778;SDS011;11556;51.194;3.800;2023-07-20T12:01:26;0.60;;;0.60;;
22778;SDS011;11556;51.194;3.800;2023-07-20T12:04:00;1.20;;;0.80;;
22778;SDS011;11556;51.194;3.800;2023-07-20T12:06:30;2.53;;;0.60;;
22778;SDS011;11556;51.194;3.800;2023-07-20T12:08:57;1.80;;;0.90;;
22778;SDS011;11556;51.194;3.800;2023-07-20T12:11:33;0.80;;;0.60;;
22778;SDS011;11556;51.194;3.800;2023-07-20T12:14:00;1.30;;;0.90;;
22778;SDS011;11556;51.194;3.800;2023-07-20T12:16:26;1.33;;;0.70;;
22778;SDS011;11556;51.194;3.800;2023-07-20T12:19:02;1.17;;;0.60;;
22778;SDS011;11556;51.194;3.800;2023-07-20T12:21:30;1.88;;;0.52;;
22778;SDS011;11556;51.194;3.800;2023-07-20T12:23:57;0.77;;;0.68;;
22778;SDS011;11556;51.194;3.800;2023-07-20T12:26:23;1.25;;;0.68;;
22778;SDS011;11556;51.194;3.800;2023-07-20T12:28:50;0.85;;;0.60;;
22778;SDS011;11556;51.194;3.800;2023-07-20T12:31:16;2.25;;;0.80;;
22778;SDS011;11556;51.194;3.800;2023-07-20T12:33:42;3.35;;;0.88;;
22778;SDS011;11556;51.194;3.800;2023-07-20T12:36:08;2.40;;;0.90;;
22778;SDS011;11556;51.194;3.800;2023-07-20T12:38:34;1.23;;;0.73;;
22778;SDS011;11556;51.194;3.800;2023-07-20T12:41:00;1.35;;;0.70;;
22778;SDS011;11556;51.194;3.800;2023-07-20T12:43:27;1.65;;;0.80;;
22778;SDS011;11556;51.194;3.800;2023-07-20T12:45:53;0.85;;;0.75;;
22778;SDS011;11556;51.194;3.800;2023-07-20T12:48:19;1.52;;;0.93;;
22778;SDS011;11556;51.194;3.800;2023-07-20T12:50:45;0.88;;;0.88;;
22778;SDS011;11556;51.194;3.800;2023-07-20T12:53:11;1.58;;;0.70;;
22778;SDS011;11556;51.194;3.800;2023-07-20T12:55:37;0.68;;;0.68;;
22778;SDS011;11556;51.194;3.800;2023-07-20T12:58:04;2.10;;;1.20;;
22778;SDS011;11556;51.194;3.800;2023-07-20T13:00:30;7.60;;;1.45;;
22778;SDS011;11556;51.194;3.800;2023-07-20T13:02:56;4.18;;;1.17;;
22778;SDS011;11556;51.194;3.800;2023-07-20T13:05:22;3.03;;;1.42;;
22778;SDS011;11556;51.194;3.800;2023-07-20T13:07:48;0.95;;;0.85;;
22778;SDS011;11556;51.194;3.800;2023-07-20T13:10:14;3.38;;;1.15;;
22778;SDS011;11556;51.194;3.800;2023-07-20T13:12:40;1.00;;;1.00;;
22778;SDS011;11556;51.194;3.800;2023-07-20T13:15:06;2.45;;;0.90;;
22778;SDS011;11556;51.194;3.800;2023-07-20T13:17:33;1.50;;;0.82;;
22778;SDS011;11556;51.194;3.800;2023-07-20T13:19:59;1.02;;;0.90;;
22778;SDS011;11556;51.194;3.800;2023-07-20T13:22:25;0.73;;;0.57;;
22778;SDS011;11556;51.194;3.800;2023-07-20T13:24:50;0.95;;;0.68;;
22778;SDS011;11556;51.194;3.800;2023-07-20T13:27:17;0.88;;;0.88;;
22778;SDS011;11556;51.194;3.800;2023-07-20T13:29:43;3.33;;;1.00;;
22778;SDS011;11556;51.194;3.800;2023-07-20T13:32:10;0.77;;;0.77;;
22778;SDS011;11556;51.194;3.800;2023-07-20T13:34:43;1.40;;;0.80;;
22778;SDS011;11556;51.194;3.800;2023-07-20T13:37:09;1.80;;;1.00;;
22778;SDS011;11556;51.194;3.800;2023-07-20T13:39:36;2.05;;;1.10;;
22778;SDS011;11556;51.194;3.800;2023-07-20T13:42:02;2.45;;;1.38;;
22778;SDS011;11556;51.194;3.800;2023-07-20T13:44:30;1.98;;;1.10;;
22778;SDS011;11556;51.194;3.800;2023-07-20T13:46:56;2.05;;;1.48;;
22778;SDS011;11556;51.194;3.800;2023-07-20T13:49:22;3.22;;;1.55;;
22778;SDS011;11556;51.194;3.800;2023-07-20T13:51:48;2.47;;;1.73;;
22778;SDS011;11556;51.194;3.800;2023-07-20T13:54:14;2.25;;;2.05;;
22778;SDS011;11556;51.194;3.800;2023-07-20T13:56:39;4.55;;;2.15;;
22778;SDS011;11556;51.194;3.800;2023-07-20T13:59:05;4.28;;;2.33;;
22778;SDS011;11556;51.194;3.800;2023-07-20T14:01:31;3.10;;;2.80;;
22778;SDS011;11556;51.194;3.800;2023-07-20T14:03:59;4.43;;;3.50;;
22778;SDS011;11556;51.194;3.800;2023-07-20T14:06:25;6.20;;;3.40;;
22778;SDS011;11556;51.194;3.800;2023-07-20T14:08:52;3.60;;;3.38;;
22778;SDS011;11556;51.194;3.800;2023-07-20T14:11:18;4.90;;;4.05;;
22778;SDS011;11556;51.194;3.800;2023-07-20T14:13:44;3.70;;;2.72;;
22778;SDS011;11556;51.194;3.800;2023-07-20T14:16:10;4.75;;;2.75;;
22778;SDS011;11556;51.194;3.800;2023-07-20T14:18:36;4.65;;;2.53;;
22778;SDS011;11556;51.194;3.800;2023-07-20T14:21:02;2.45;;;2.17;;
22778;SDS011;11556;51.194;3.800;2023-07-20T14:23:28;2.60;;;2.35;;
22778;SDS011;11556;51.194;3.800;2023-07-20T14:25:54;3.08;;;2.47;;
22778;SDS011;11556;51.194;3.800;2023-07-20T14:28:20;2.38;;;2.17;;
22778;SDS011;11556;51.194;3.800;2023-07-20T14:30:46;2.67;;;2.17;;
22778;SDS011;11556;51.194;3.800;2023-07-20T14:33:12;2.35;;;2.00;;
22778;SDS011;11556;51.194;3.800;2023-07-20T14:35:37;4.75;;;2.92;;
22778;SDS011;11556;51.194;3.800;2023-07-20T14:38:03;2.30;;;2.10;;
22778;SDS011;11556;51.194;3.800;2023-07-20T14:40:29;1.85;;;1.65;;
22778;SDS011;11556;51.194;3.800;2023-07-20T14:42:55;2.67;;;1.90;;
22778;SDS011;11556;51.194;3.800;2023-07-20T14:45:21;2.70;;;2.17;;
22778;SDS011;11556;51.194;3.800;2023-07-20T14:47:47;1.70;;;1.60;;
22778;SDS011;11556;51.194;3.800;2023-07-20T14:50:18;1.70;;;1.60;;
22778;SDS011;11556;51.194;3.800;2023-07-20T14:52:47;3.70;;;1.67;;
22778;SDS011;11556;51.194;3.800;2023-07-20T14:55:13;1.88;;;1.63;;
22778;SDS011;11556;51.194;3.800;2023-07-20T14:57:39;1.95;;;1.60;;
22778;SDS011;11556;51.194;3.800;2023-07-20T15:00:05;2.33;;;1.58;;
22778;SDS011;11556;51.194;3.800;2023-07-20T15:02:33;2.03;;;1.88;;
22778;SDS011;11556;51.194;3.800;2023-07-20T15:04:59;2.58;;;1.80;;